Aérodrome :
LOGIN :

S'inscrire | Disclaimer

   EN    FR    IT 

 










Légende :    VFR   VFR Marginal   IFR   IFR Intensif   IFR Très Intensif
Visi : 
Plafond : 
>= 8 km
>= 3000ft
5 à 8 km
1000 à 3000 ft
1500m à 5 km
500 à 1000 ft
800 à 1500m
200 à 500 ft
< 800m
< 200 ft
Symboles :   Orages  Brouillard  Fortes neiges  Fortes précipitations  Vent > 20 kt
SIGMETs :   Divers  Orages  Givrage  Turbulence  Onde Orograph.  Cendres Volcan.






- Altitude de l'aérodrome : 278 ft
- Code IATA : RJK


LDRI - Rijeka

DERNIER METAR :
  • 160900Z 12005KT 080V150 9999 SCT023 21/13 Q1016

METARs EXPIRÉS :
  • 160830Z 13006KT 100V200 9999 FEW023 20/14 Q1016
  • 160800Z 15004KT 110V200 9999 FEW027 20/15 Q1015
  • 160730Z 15005KT 070V210 9999 FEW025 19/15 Q1015
  • 160700Z 14005KT 110V190 9999 FEW025 SCT047 17/16 Q1015
  • 160630Z 13008KT 9999 FEW020 SCT047 17/17 Q1015

TAF TAF LDRI
Valide du 16 à 06h jusqu'au 17 à 06h UTC


160525Z 1606/1706 VRB02KT 9999 BKN050 TX21/1613Z TN12/1705Z



MET'MAP, la Météo Aéronautique d'un coup d'oeil ! - Copyright ORBIFLY Décembre 2007 - Disclaimer

ORBIFLY MET'MAP TEAM :

Programmation & Développement : Alexandra Zaïnal
Conception & Développement : Baudouin d'Aumeries
Co-Programmation & Développement : Marc-Olivier Méhu
Soutien technique & logistique : Manuel Goepfert

Contact : metmap@orbifly.com




SOURCES & CREDITS :

   NOAA